Time;durP1;ratioP1;P1;durP2;ratioP2;P2;SDS_P1;SDS_P2;PMS_P1;PMS_P2;Temp;Humidity;BMP_temperature;BMP_pressure;BME280_temperature;BME280_humidity;BME280_pressure;Samples;Min_cycle;Max_cycle;Signal;HPM_P1;HPM_P2
2021/12/27 00:01:02;;;;;;;91.55;46.03;;;;;;;2.51;100.00;90457.75;5054011;28;20048;-67
2021/12/27 00:03:28;;;;;;;98.10;48.65;;;;;;;2.49;100.00;90478.25;5053893;28;20659;-67
2021/12/27 00:05:53;;;;;;;85.63;40.22;;;;;;;2.57;100.00;90464.56;5053849;28;20108;-66
2021/12/27 00:08:19;;;;;;;109.03;52.78;;;;;;;2.49;100.00;90448.59;5053837;28;20029;-67
2021/12/27 00:10:45;;;;;;;83.20;41.45;;;;;;;2.46;100.00;90470.91;5053863;28;20040;-67
2021/12/27 00:13:10;;;;;;;80.50;40.35;;;;;;;2.28;100.00;90447.91;5053898;28;20037;-67
2021/12/27 00:15:37;;;;;;;83.18;42.42;;;;;;;2.25;100.00;90457.13;5053847;28;20044;-67
2021/12/27 00:18:03;;;;;;;52.13;30.25;;;;;;;2.36;100.00;90460.47;5053677;28;20418;-67
2021/12/27 00:20:28;;;;;;;46.97;27.98;;;;;;;2.32;100.00;90459.44;5053780;28;20045;-67
2021/12/27 00:22:54;;;;;;;44.33;27.33;;;;;;;2.31;100.00;90465.75;5053687;28;20495;-67
2021/12/27 00:25:20;;;;;;;45.08;24.77;;;;;;;2.41;100.00;90465.69;5053702;28;20890;-67
2021/12/27 00:27:47;;;;;;;46.20;25.63;;;;;;;2.46;100.00;90470.13;5053563;28;20519;-67
2021/12/27 00:30:15;;;;;;;52.67;26.65;;;;;;;2.58;100.00;90470.59;5053540;28;20037;-67
2021/12/27 00:32:43;;;;;;;62.25;32.30;;;;;;;2.62;100.00;90459.28;5053532;28;20028;-67
2021/12/27 00:35:10;;;;;;;54.38;31.10;;;;;;;2.69;100.00;90459.78;5053486;28;20076;-67
2021/12/27 00:37:36;;;;;;;56.00;30.08;;;;;;;2.54;100.00;90459.84;5053373;28;20036;-67
2021/12/27 00:40:06;;;;;;;38.22;21.08;;;;;;;2.70;100.00;90466.59;5053382;28;20106;-67
2021/12/27 00:42:32;;;;;;;44.70;24.15;;;;;;;2.89;100.00;90474.59;5053214;28;20084;-67
2021/12/27 00:44:57;;;;;;;35.58;20.33;;;;;;;2.83;100.00;90459.13;5052187;28;20561;-67
2021/12/27 00:47:23;;;;;;;33.83;20.58;;;;;;;2.78;100.00;90461.81;5053187;28;20036;-67
2021/12/27 00:49:48;;;;;;;31.10;18.70;;;;;;;2.84;100.00;90465.94;5053099;28;20051;-67
2021/12/27 00:52:14;;;;;;;27.60;16.48;;;;;;;3.02;100.00;90462.69;5053158;28;20029;-67
2021/12/27 00:54:39;;;;;;;47.38;23.98;;;;;;;2.90;100.00;90462.25;5053156;28;20098;-67
2021/12/27 00:57:05;;;;;;;38.42;22.63;;;;;;;2.78;100.00;90461.81;5051796;28;20037;-67
2021/12/27 00:59:31;;;;;;;35.67;19.88;;;;;;;2.75;100.00;90451.84;5052737;28;20048;-67
2021/12/27 01:01:56;;;;;;;27.88;16.80;;;;;;;2.69;100.00;90449.25;5052872;28;20037;-67
2021/12/27 01:04:22;;;;;;;36.50;20.90;;;;;;;2.64;100.00;90470.28;5052980;28;20040;-67
2021/12/27 01:06:48;;;;;;;41.60;24.30;;;;;;;2.66;100.00;90473.41;5052928;28;20546;-67
2021/12/27 01:09:23;;;;;;;26.55;16.35;;;;;;;2.34;100.00;90473.84;5052716;28;20069;-66
2021/12/27 01:12:12;;;;;;;27.73;15.20;;;;;;;2.25;100.00;90462.38;5052801;28;20033;-66
2021/12/27 01:14:44;;;;;;;28.83;16.42;;;;;;;2.19;100.00;90468.66;5053046;28;20489;-67
2021/12/27 01:17:11;;;;;;;37.40;18.85;;;;;;;2.09;100.00;90466.91;5052631;28;20088;-67
2021/12/27 01:19:37;;;;;;;54.97;29.75;;;;;;;2.03;100.00;90478.44;5052643;28;20040;-66
2021/12/27 01:22:03;;;;;;;47.72;27.40;;;;;;;1.98;100.00;90469.81;5251263;22;20055;-66
2021/12/27 01:24:29;;;;;;;71.65;41.08;;;;;;;1.88;100.00;90460.13;5092987;28;20409;-66
2021/12/27 01:26:54;;;;;;;104.05;55.47;;;;;;;1.85;100.00;90446.78;5092803;28;20035;-66
2021/12/27 01:29:20;;;;;;;104.07;56.33;;;;;;;1.92;100.00;90450.69;5092764;28;20443;-66
2021/12/27 01:31:45;;;;;;;109.13;61.17;;;;;;;1.89;100.00;90430.22;5092572;28;20028;-66
2021/12/27 01:34:11;;;;;;;115.10;61.90;;;;;;;2.01;100.00;90433.34;5092563;28;20028;-66
2021/12/27 01:36:37;;;;;;;99.53;58.63;;;;;;;2.10;100.00;90436.97;5092587;28;20032;-66
2021/12/27 01:39:05;;;;;;;106.80;58.53;;;;;;;2.27;100.00;90435.84;5092541;28;20508;-66
2021/12/27 01:41:31;;;;;;;124.72;65.30;;;;;;;2.35;100.00;90430.03;5092364;28;20032;-66
2021/12/27 01:43:57;;;;;;;124.43;65.18;;;;;;;2.39;100.00;90431.84;5092289;28;20382;-66
2021/12/27 01:46:24;;;;;;;76.38;43.95;;;;;;;2.43;100.00;90426.84;5092394;28;20035;-66
2021/12/27 01:48:55;;;;;;;83.28;45.33;;;;;;;2.74;100.00;90442.41;5092300;28;20035;-66
2021/12/27 01:51:25;;;;;;;60.97;33.90;;;;;;;2.89;100.00;90434.41;5092215;28;20045;-66
2021/12/27 01:53:51;;;;;;;61.15;32.97;;;;;;;2.54;100.00;90430.97;5092219;28;20024;-66
2021/12/27 01:56:20;;;;;;;56.10;29.92;;;;;;;2.57;100.00;90414.69;5091819;28;20040;-66
2021/12/27 01:58:47;;;;;;;51.45;30.48;;;;;;;2.67;100.00;90404.09;5092140;28;20031;-66
2021/12/27 02:01:13;;;;;;;53.13;32.45;;;;;;;2.73;100.00;90422.44;5091990;28;20024;-66
2021/12/27 02:03:41;;;;;;;54.42;33.08;;;;;;;2.60;100.00;90426.47;5073766;28;20028;-66
2021/12/27 02:06:07;;;;;;;55.67;30.80;;;;;;;2.81;100.00;90432.38;5091978;28;20063;-67
2021/12/27 02:08:35;;;;;;;42.50;23.42;;;;;;;2.89;100.00;90411.56;5092023;28;20024;-67
2021/12/27 02:11:01;;;;;;;43.63;25.00;;;;;;;2.80;100.00;90409.78;5091857;28;20417;-67
2021/12/27 02:13:27;;;;;;;47.92;26.15;;;;;;;2.72;100.00;90421.66;5091913;28;20020;-67
2021/12/27 02:15:52;;;;;;;41.30;25.55;;;;;;;2.68;100.00;90418.00;5091818;28;20039;-67
2021/12/27 02:18:18;;;;;;;44.88;25.45;;;;;;;2.57;100.00;90419.16;5091795;28;20020;-67
2021/12/27 02:20:44;;;;;;;41.60;25.52;;;;;;;2.59;100.00;90407.31;5091468;28;20052;-67
2021/12/27 02:23:17;;;;;;;48.78;27.85;;;;;;;2.63;100.00;90407.53;5091661;28;20059;-67
2021/12/27 02:25:49;;;;;;;71.00;39.08;;;;;;;2.68;100.00;90421.44;5091635;28;20067;-67
2021/12/27 02:28:17;;;;;;;56.30;31.20;;;;;;;2.69;100.00;90406.47;5091692;28;20039;-67
2021/12/27 02:30:45;;;;;;;70.93;38.30;;;;;;;2.50;100.00;90408.94;5091555;28;20111;-67
2021/12/27 02:33:12;;;;;;;56.00;31.83;;;;;;;2.44;100.00;90423.16;5091842;28;20020;-67
2021/12/27 02:35:44;;;;;;;57.10;31.50;;;;;;;2.47;100.00;90421.81;5091547;28;20067;-67
2021/12/27 02:38:12;;;;;;;49.97;30.20;;;;;;;2.37;100.00;90422.69;5091509;28;20032;-67
2021/12/27 02:40:39;;;;;;;56.80;32.47;;;;;;;2.23;100.00;90405.97;5091377;28;20032;-67
2021/12/27 02:43:07;;;;;;;52.35;28.83;;;;;;;2.28;100.00;90425.09;5091383;28;20493;-67
2021/12/27 02:45:40;;;;;;;81.70;38.80;;;;;;;2.20;100.00;90403.84;5091451;28;20055;-67
2021/12/27 02:48:07;;;;;;;58.35;31.20;;;;;;;2.18;100.00;90409.38;5091404;28;20520;-67
2021/12/27 02:50:34;;;;;;;46.70;27.42;;;;;;;2.27;100.00;90401.75;5091279;28;20036;-67
2021/12/27 02:53:00;;;;;;;46.08;25.25;;;;;;;2.14;100.00;90399.69;5091610;28;20103;-67
2021/12/27 02:55:26;;;;;;;46.63;27.13;;;;;;;2.14;100.00;90392.63;5091337;28;20520;-67
2021/12/27 02:57:52;;;;;;;49.17;25.92;;;;;;;2.15;100.00;90388.16;5091304;28;20028;-67
2021/12/27 03:00:29;;;;;;;55.47;28.75;;;;;;;2.21;100.00;90408.06;5091138;28;20032;-67
2021/12/27 03:02:56;;;;;;;42.55;25.15;;;;;;;2.31;100.00;90384.38;5091168;28;20379;-67
2021/12/27 03:05:24;;;;;;;42.90;24.63;;;;;;;2.40;100.00;90388.00;5091280;28;20039;-67
2021/12/27 03:07:51;;;;;;;50.00;28.35;;;;;;;2.34;100.00;90389.09;5091456;28;20028;-67
2021/12/27 03:10:20;;;;;;;44.28;24.45;;;;;;;2.36;100.00;90381.72;5095167;28;20390;-67
2021/12/27 03:12:46;;;;;;;32.03;19.40;;;;;;;2.27;100.00;90378.13;5095322;28;20103;-67
2021/12/27 03:15:13;;;;;;;22.73;14.43;;;;;;;2.27;100.00;90386.78;5095328;28;20024;-67
2021/12/27 03:17:42;;;;;;;16.30;10.95;;;;;;;2.37;100.00;90391.19;5077157;28;20036;-67
2021/12/27 03:20:09;;;;;;;15.15;8.40;;;;;;;2.43;100.00;90387.47;5094890;28;20113;-68
2021/12/27 03:22:37;;;;;;;11.77;6.18;;;;;;;2.50;100.00;90390.56;5095086;28;20031;-67
2021/12/27 03:25:05;;;;;;;10.77;6.18;;;;;;;2.40;100.00;90380.13;5095096;28;20019;-67
2021/12/27 03:27:31;;;;;;;11.57;6.05;;;;;;;2.43;100.00;90382.22;5095093;28;20024;-67
2021/12/27 03:29:56;;;;;;;9.98;5.93;;;;;;;2.46;100.00;90381.66;5094933;28;20111;-67
2021/12/27 03:32:22;;;;;;;12.40;8.02;;;;;;;2.56;100.00;90383.44;5095007;28;20217;-67
2021/12/27 03:34:57;;;;;;;14.13;7.57;;;;;;;2.55;100.00;90369.53;5094903;28;20042;-67
2021/12/27 03:37:24;;;;;;;14.23;8.73;;;;;;;2.53;100.00;90370.88;5094858;28;20444;-67
2021/12/27 03:39:50;;;;;;;15.55;8.60;;;;;;;2.62;100.00;90375.25;5094714;28;20028;-67
2021/12/27 03:42:17;;;;;;;13.85;8.35;;;;;;;2.73;100.00;90375.97;5094685;28;20100;-67
2021/12/27 03:44:44;;;;;;;25.05;11.65;;;;;;;2.67;100.00;90375.19;5094767;28;20031;-67
2021/12/27 03:47:10;;;;;;;28.48;13.90;;;;;;;2.54;100.00;90378.47;5094692;28;20093;-67
2021/12/27 03:49:37;;;;;;;24.70;13.32;;;;;;;2.39;100.00;90379.34;5094651;28;20028;-67
2021/12/27 03:52:03;;;;;;;22.65;12.70;;;;;;;2.26;100.00;90377.34;5094425;28;20107;-67
2021/12/27 03:54:28;;;;;;;23.48;12.52;;;;;;;2.07;100.00;90369.31;5094547;28;20036;-67
2021/12/27 03:56:54;;;;;;;21.17;12.80;;;;;;;2.03;100.00;90376.13;5094479;28;20048;-67
2021/12/27 03:59:35;;;;;;;23.60;13.35;;;;;;;1.96;100.00;90373.03;5094502;28;20458;-68
2021/12/27 04:02:01;;;;;;;23.98;14.38;;;;;;;1.88;100.00;90365.72;5094177;28;20032;-67
2021/12/27 04:04:26;;;;;;;42.92;22.80;;;;;;;1.86;100.00;90356.56;5094367;28;20549;-67
2021/12/27 04:06:52;;;;;;;34.70;19.38;;;;;;;1.72;100.00;90364.22;5094337;28;20085;-67
2021/12/27 04:09:18;;;;;;;32.45;18.17;;;;;;;1.62;100.00;90356.41;5094278;28;20047;-67
2021/12/27 04:11:44;;;;;;;28.30;16.98;;;;;;;1.47;100.00;90357.25;5094184;28;20066;-67
2021/12/27 04:14:09;;;;;;;26.52;16.17;;;;;;;1.49;100.00;90374.28;5094200;28;20056;-67
2021/12/27 04:16:35;;;;;;;45.47;24.48;;;;;;;1.70;100.00;90374.97;5094160;28;20035;-67
2021/12/27 04:19:00;;;;;;;45.08;25.90;;;;;;;1.62;100.00;90362.44;5093913;28;20493;-67
2021/12/27 04:21:26;;;;;;;37.55;23.27;;;;;;;1.65;100.00;90374.22;5093730;28;20044;-67
2021/12/27 04:23:51;;;;;;;48.42;26.38;;;;;;;1.76;100.00;90388.88;5093962;28;20028;-67
2021/12/27 04:26:17;;;;;;;40.08;23.20;;;;;;;1.77;100.00;90369.47;5093928;28;20020;-67
2021/12/27 04:28:42;;;;;;;41.90;23.65;;;;;;;1.79;100.00;90380.47;5093910;28;20085;-67
2021/12/27 04:31:08;;;;;;;41.80;24.25;;;;;;;1.82;100.00;90393.03;5093758;28;20028;-67
2021/12/27 04:33:33;;;;;;;39.38;24.08;;;;;;;1.82;100.00;90376.50;5093812;28;20097;-67
2021/12/27 04:35:59;;;;;;;34.40;21.48;;;;;;;1.96;100.00;90391.41;5093718;28;20026;-67
2021/12/27 04:38:24;;;;;;;35.00;21.58;;;;;;;1.94;100.00;90390.88;5093759;28;20032;-67
2021/12/27 04:40:52;;;;;;;32.80;18.42;;;;;;;2.07;100.00;90385.06;5093552;28;20482;-67
2021/12/27 04:43:20;;;;;;;32.80;18.50;;;;;;;2.03;100.00;90391.88;5093559;28;20409;-67
2021/12/27 04:45:48;;;;;;;34.28;20.95;;;;;;;2.07;100.00;90392.94;5093579;28;20512;-67
2021/12/27 04:48:16;;;;;;;32.03;20.60;;;;;;;2.04;100.00;90395.28;5093820;28;20036;-67
2021/12/27 04:50:41;;;;;;;32.03;19.70;;;;;;;2.04;100.00;90387.41;5093397;28;20020;-67
2021/12/27 04:53:07;;;;;;;25.02;16.63;;;;;;;2.15;100.00;90401.28;5093444;28;20110;-67
2021/12/27 04:55:34;;;;;;;34.90;21.08;;;;;;;2.38;100.00;90398.00;5093295;28;20031;-67
2021/12/27 04:58:00;;;;;;;37.50;20.55;;;;;;;2.26;100.00;90393.06;5093261;28;20062;-67
2021/12/27 05:00:26;;;;;;;36.63;19.92;;;;;;;2.32;100.00;90394.59;5093163;28;20409;-67
2021/12/27 05:02:52;;;;;;;64.15;31.52;;;;;;;2.31;100.00;90387.00;5093149;28;20024;-67
2021/12/27 05:05:18;;;;;;;61.10;30.75;;;;;;;2.44;100.00;90394.28;5093178;28;20024;-67
2021/12/27 05:07:44;;;;;;;65.25;32.22;;;;;;;2.47;100.00;90398.97;5093111;28;20621;-67
2021/12/27 05:10:10;;;;;;;72.68;32.30;;;;;;;2.58;100.00;90404.97;5092893;28;20060;-66
2021/12/27 05:12:36;;;;;;;40.45;20.73;;;;;;;2.62;100.00;90401.50;5093047;28;20056;-67
2021/12/27 05:15:03;;;;;;;68.60;33.60;;;;;;;2.44;100.00;90386.41;5093008;28;20056;-66
2021/12/27 05:17:30;;;;;;;77.20;34.22;;;;;;;2.53;100.00;90405.78;5093001;28;20139;-67
2021/12/27 05:19:56;;;;;;;115.30;52.72;;;;;;;2.65;100.00;90411.47;5092746;28;20078;-67
2021/12/27 05:22:24;;;;;;;130.15;59.55;;;;;;;2.55;100.00;90418.63;5092585;28;20056;-66
2021/12/27 05:24:50;;;;;;;110.97;56.42;;;;;;;2.49;100.00;90406.56;5092812;28;20481;-66
2021/12/27 05:27:15;;;;;;;35.00;19.40;;;;;;;2.35;100.00;90382.78;5092762;28;20069;-67
2021/12/27 05:29:41;;;;;;;37.85;20.90;;;;;;;2.36;100.00;90386.97;5092660;28;20051;-67
2021/12/27 05:32:07;;;;;;;66.93;34.17;;;;;;;2.55;100.00;90413.38;5092010;28;20036;-67
2021/12/27 05:34:32;;;;;;;51.83;27.65;;;;;;;2.52;100.00;90396.31;5092543;28;20020;-66
2021/12/27 05:36:58;;;;;;;88.50;41.47;;;;;;;2.47;100.00;90398.97;5074462;28;20032;-66
2021/12/27 05:39:24;;;;;;;83.70;41.63;;;;;;;2.39;100.00;90396.94;5092446;28;20524;-67
2021/12/27 05:41:50;;;;;;;61.60;34.83;;;;;;;2.19;100.00;90384.72;5074145;28;20032;-67
2021/12/27 05:44:17;;;;;;;54.58;28.85;;;;;;;2.16;100.00;90392.34;5092304;28;20125;-66
2021/12/27 05:46:43;;;;;;;52.95;29.95;;;;;;;2.24;100.00;90391.78;5092026;28;20052;-67
2021/12/27 05:49:09;;;;;;;47.95;27.25;;;;;;;2.24;100.00;90386.53;5092223;28;20103;-67
2021/12/27 05:51:36;;;;;;;46.75;27.15;;;;;;;2.29;100.00;90387.28;5092055;28;20098;-67
2021/12/27 05:54:04;;;;;;;57.50;30.85;;;;;;;2.31;100.00;90395.66;5079744;28;20583;-68
2021/12/27 05:56:29;;;;;;;57.40;31.73;;;;;;;2.33;100.00;90408.50;5070283;28;20051;-66
2021/12/27 05:58:55;;;;;;;44.38;24.88;;;;;;;2.17;100.00;90394.69;5071463;28;20046;-67
2021/12/27 06:01:21;;;;;;;50.10;30.67;;;;;;;2.14;100.00;90407.56;5084990;28;20024;-67
2021/12/27 06:03:46;;;;;;;55.30;31.02;;;;;;;2.27;100.00;90412.22;5091352;28;20050;-66
2021/12/27 06:06:12;;;;;;;43.58;26.15;;;;;;;2.28;100.00;90406.72;5091380;28;20024;-66
2021/12/27 06:08:38;;;;;;;97.43;50.67;;;;;;;2.34;100.00;90402.22;5091540;28;20058;-66
2021/12/27 06:11:03;;;;;;;50.72;30.27;;;;;;;2.31;100.00;90384.38;5091268;28;20083;-66
2021/12/27 06:13:29;;;;;;;43.83;26.13;;;;;;;2.17;100.00;90405.19;5091286;28;20545;-68
2021/12/27 06:15:55;;;;;;;51.67;26.65;;;;;;;2.10;100.00;90408.13;5090673;28;20094;-67
2021/12/27 06:18:21;;;;;;;56.75;31.35;;;;;;;2.24;100.00;90407.53;5091250;28;20394;-68
2021/12/27 06:20:46;;;;;;;80.63;44.97;;;;;;;2.28;100.00;90405.94;5091111;28;20121;-68
2021/12/27 06:23:12;;;;;;;66.07;40.05;;;;;;;2.33;100.00;90398.00;5091420;28;20038;-67
2021/12/27 06:25:38;;;;;;;61.63;37.70;;;;;;;2.45;100.00;90411.59;5091296;28;20035;-67
2021/12/27 06:28:04;;;;;;;79.97;45.72;;;;;;;2.36;100.00;90421.88;5091284;28;20050;-68
2021/12/27 06:30:29;;;;;;;98.00;57.05;;;;;;;2.54;100.00;90404.72;5090373;28;20020;-68
2021/12/27 06:32:55;;;;;;;63.83;36.63;;;;;;;2.48;100.00;90405.00;5091209;28;20016;-68
2021/12/27 06:35:21;;;;;;;101.70;50.83;;;;;;;2.47;100.00;90377.97;5091578;28;20063;-68
2021/12/27 06:37:47;;;;;;;83.03;47.38;;;;;;;2.45;100.00;90347.81;5091257;28;20020;-67
2021/12/27 06:40:16;;;;;;;74.18;47.00;;;;;;;2.61;100.00;90371.06;5090964;28;20553;-67
2021/12/27 06:42:42;;;;;;;80.72;48.97;;;;;;;2.58;100.00;90386.59;5090018;28;20455;-68
2021/12/27 06:45:08;;;;;;;71.70;42.63;;;;;;;2.48;100.00;90403.16;5090329;28;20044;-68
2021/12/27 06:47:34;;;;;;;74.00;43.58;;;;;;;2.57;100.00;90406.03;5091034;28;20032;-68
2021/12/27 06:50:00;;;;;;;77.45;45.08;;;;;;;2.73;100.00;90398.81;5091001;28;20039;-68
2021/12/27 06:52:25;;;;;;;139.57;76.03;;;;;;;2.66;100.00;90388.59;5090918;28;20467;-68
2021/12/27 06:54:51;;;;;;;100.10;60.67;;;;;;;2.71;100.00;90391.22;5090917;28;20112;-67
2021/12/27 06:57:18;;;;;;;104.18;62.72;;;;;;;2.69;100.00;90365.22;5090881;28;20154;-67
2021/12/27 06:59:45;;;;;;;117.85;66.22;;;;;;;3.02;100.00;90386.50;5090652;28;20084;-68
2021/12/27 07:02:11;;;;;;;99.53;57.85;;;;;;;3.30;100.00;90393.56;5071982;28;20039;-67
2021/12/27 07:04:38;;;;;;;97.88;57.90;;;;;;;3.33;100.00;90386.22;5090829;28;20500;-66
2021/12/27 07:07:04;;;;;;;96.28;57.25;;;;;;;3.56;100.00;90377.56;5090651;28;20180;-67
2021/12/27 07:09:30;;;;;;;69.97;41.92;;;;;;;3.50;100.00;90368.16;5090681;28;20032;-66
2021/12/27 07:11:56;;;;;;;86.18;48.42;;;;;;;3.63;100.00;90362.25;5088202;28;20117;-68
2021/12/27 07:14:21;;;;;;;124.13;69.10;;;;;;;3.56;100.00;90351.25;5073038;28;20075;-69
2021/12/27 07:16:47;;;;;;;77.32;44.03;;;;;;;3.82;100.00;90373.59;5074857;28;20036;-68
2021/12/27 07:19:13;;;;;;;52.00;30.95;;;;;;;4.05;100.00;90376.47;5058876;28;20047;-68
2021/12/27 07:21:38;;;;;;;55.72;34.72;;;;;;;4.38;100.00;90378.13;5069844;28;20051;-68
2021/12/27 07:24:05;;;;;;;63.53;41.88;;;;;;;4.42;100.00;90362.56;5070134;28;20116;-69
2021/12/27 07:26:30;;;;;;;59.60;36.70;;;;;;;4.40;100.00;90354.94;5070330;28;20024;-67
2021/12/27 07:28:56;;;;;;;58.85;34.78;;;;;;;4.51;100.00;90366.91;5070082;28;20031;-66
2021/12/27 07:31:22;;;;;;;53.55;34.78;;;;;;;4.46;100.00;90363.56;5069210;28;20085;-70
2021/12/27 07:33:47;;;;;;;74.97;45.58;;;;;;;4.42;100.00;90362.56;5052807;28;20190;-67
2021/12/27 07:36:13;;;;;;;96.00;57.95;;;;;;;4.62;100.00;90366.75;5070261;28;20498;-67
2021/12/27 07:38:39;;;;;;;101.70;60.95;;;;;;;4.94;100.00;90350.19;5070089;28;20691;-68
2021/12/27 07:41:05;;;;;;;91.00;51.63;;;;;;;5.13;100.00;90363.31;5070052;28;20036;-68
2021/12/27 07:43:31;;;;;;;129.80;74.95;;;;;;;5.25;100.00;90347.84;5070078;28;20024;-68
2021/12/27 07:45:56;;;;;;;120.30;68.78;;;;;;;4.87;100.00;90345.28;5069526;28;20043;-68
2021/12/27 07:48:22;;;;;;;67.88;42.58;;;;;;;4.53;100.00;90368.47;5070118;28;20035;-67
2021/12/27 07:50:48;;;;;;;72.20;45.42;;;;;;;4.80;100.00;90365.94;5069912;28;20028;-69
2021/12/27 07:53:13;;;;;;;43.72;29.30;;;;;;;4.45;100.00;90331.19;5083472;28;20066;-68
2021/12/27 07:55:39;;;;;;;64.15;39.47;;;;;;;4.30;100.00;90364.84;5085928;28;20043;-69
2021/12/27 07:58:05;;;;;;;86.50;54.08;;;;;;;4.39;100.00;90356.00;5093304;28;20024;-69
2021/12/27 08:00:31;;;;;;;69.63;44.42;;;;;;;4.01;100.00;90370.22;5092639;28;20028;-69
2021/12/27 08:02:57;;;;;;;75.93;46.05;;;;;;;4.08;100.00;90371.41;5092856;28;20090;-67
2021/12/27 08:05:22;;;;;;;73.53;45.50;;;;;;;4.11;100.00;90373.50;5093326;28;20028;-67
2021/12/27 08:07:48;;;;;;;85.28;51.65;;;;;;;4.31;100.00;90380.34;5092998;28;20102;-66
2021/12/27 08:10:17;;;;;;;156.48;97.57;;;;;;;4.28;100.00;90373.03;5093278;28;20052;-67
2021/12/27 08:12:44;;;;;;;199.77;121.72;;;;;;;4.40;100.00;90370.72;5090111;28;20068;-65
2021/12/27 08:15:11;;;;;;;186.77;116.75;;;;;;;4.70;100.00;90376.63;5092248;28;20590;-65
2021/12/27 08:17:38;;;;;;;200.05;121.78;;;;;;;4.98;100.00;90370.41;5092721;28;20474;-68
2021/12/27 08:20:05;;;;;;;186.02;115.43;;;;;;;5.21;100.00;90376.63;5092693;28;20510;-67
2021/12/27 08:22:31;;;;;;;186.82;115.20;;;;;;;5.48;100.00;90378.53;5074942;28;20048;-67
2021/12/27 08:24:56;;;;;;;169.82;106.53;;;;;;;5.65;100.00;90372.69;5080898;28;20028;-66
2021/12/27 08:27:24;;;;;;;169.40;104.60;;;;;;;6.05;100.00;90391.50;5084211;28;20474;-67
2021/12/27 08:29:50;;;;;;;239.68;153.23;;;;;;;6.27;100.00;90388.94;5090286;28;20035;-66
2021/12/27 08:32:16;;;;;;;158.32;101.43;;;;;;;6.27;100.00;90396.88;5072814;28;20032;-68
2021/12/27 08:34:42;;;;;;;274.13;144.55;;;;;;;6.40;100.00;90419.06;5072785;28;20506;-69
2021/12/27 08:37:07;;;;;;;72.13;41.08;;;;;;;6.24;100.00;90410.66;5072886;28;20035;-69
2021/12/27 08:39:34;;;;;;;53.25;36.35;;;;;;;6.12;100.00;90397.16;5072683;28;20028;-68
2021/12/27 08:42:01;;;;;;;57.60;37.53;;;;;;;6.12;100.00;90405.88;5080595;28;20035;-68
2021/12/27 08:44:27;;;;;;;59.03;35.85;;;;;;;6.28;100.00;90401.84;5092243;28;20027;-70
2021/12/27 08:46:53;;;;;;;274.92;172.02;;;;;;;6.41;100.00;90391.56;5092858;28;20032;-68
2021/12/27 08:49:18;;;;;;;367.95;223.27;;;;;;;6.22;100.00;90381.13;5074641;28;20152;-69
2021/12/27 08:51:44;;;;;;;77.82;47.30;;;;;;;6.59;100.00;90398.59;5092860;28;20044;-67
2021/12/27 08:54:10;;;;;;;40.75;26.58;;;;;;;6.70;100.00;90389.38;5092730;28;20028;-71
2021/12/27 08:56:38;;;;;;;48.03;29.25;;;;;;;6.70;100.00;90389.38;5092736;28;20103;-69
2021/12/27 08:59:04;;;;;;;65.78;39.70;;;;;;;6.78;100.00;90393.16;5091675;28;20032;-69
2021/12/27 09:01:30;;;;;;;58.38;36.30;;;;;;;6.85;100.00;90388.25;5092394;28;20573;-67
2021/12/27 09:03:56;;;;;;;59.53;39.03;;;;;;;6.59;100.00;90374.81;5092611;28;20443;-68
2021/12/27 09:06:22;;;;;;;54.17;35.38;;;;;;;6.38;100.00;90369.19;5091554;28;20028;-67
2021/12/27 09:08:48;;;;;;;36.05;24.40;;;;;;;6.10;100.00;90359.72;5092555;28;20016;-66
2021/12/27 09:11:13;;;;;;;36.10;23.85;;;;;;;6.41;100.00;90352.72;5092588;28;20035;-68
2021/12/27 09:13:39;;;;;;;36.20;24.50;;;;;;;6.38;100.00;90342.75;5088699;28;20386;-68
2021/12/27 09:16:07;;;;;;;48.05;29.67;;;;;;;6.65;100.00;90347.19;5091298;28;20036;-67
2021/12/27 09:18:35;;;;;;;51.75;33.65;;;;;;;6.80;100.00;90343.44;5091999;28;20020;-68
2021/12/27 09:21:00;;;;;;;64.97;43.13;;;;;;;7.04;100.00;90328.03;5089835;28;20131;-67
2021/12/27 09:23:26;;;;;;;68.90;45.88;;;;;;;7.17;100.00;90307.91;4926821;28;108479;-70
2021/12/27 09:25:52;;;;;;;84.35;52.33;;;;;;;7.03;100.00;90317.75;5029409;28;20030;-69
2021/12/27 09:28:18;;;;;;;86.70;54.88;;;;;;;7.33;100.00;90310.94;5029182;28;20082;-68
2021/12/27 09:30:44;;;;;;;92.55;59.90;;;;;;;7.53;100.00;90301.69;5028750;28;20026;-66
2021/12/27 09:33:10;;;;;;;93.15;61.22;;;;;;;7.45;99.04;90317.22;5029571;28;20407;-71
2021/12/27 09:35:36;;;;;;;195.00;93.50;;;;;;;6.88;100.00;90303.03;5028765;28;20026;-71
2021/12/27 09:38:03;;;;;;;150.15;71.82;;;;;;;6.40;100.00;90297.56;5028745;28;20057;-71
2021/12/27 09:40:28;;;;;;;135.57;71.97;;;;;;;6.52;100.00;90285.38;5044587;28;20029;-72
2021/12/27 09:42:55;;;;;;;130.45;75.28;;;;;;;6.50;100.00;90276.19;5028610;28;20044;-70
2021/12/27 09:45:22;;;;;;;163.73;84.40;;;;;;;6.38;100.00;90283.88;5028977;28;20060;-69
2021/12/27 09:47:50;;;;;;;108.82;60.20;;;;;;;6.53;100.00;90286.16;5029226;28;20467;-68
2021/12/27 09:50:24;;;;;;;73.13;44.97;;;;;;;6.34;100.00;90280.25;5029352;28;20025;-69
2021/12/27 09:52:49;;;;;;;55.88;36.53;;;;;;;6.45;100.00;90292.94;5029210;28;20459;-69
2021/12/27 09:55:16;;;;;;;55.42;34.22;;;;;;;6.48;100.00;90283.66;5027270;28;20032;-70
2021/12/27 09:57:41;;;;;;;47.97;28.52;;;;;;;6.26;100.00;90271.19;5026889;28;20033;-68
2021/12/27 10:00:08;;;;;;;40.00;24.90;;;;;;;6.06;100.00;90287.47;5045742;28;20083;-69
2021/12/27 10:02:35;;;;;;;57.30;36.00;;;;;;;6.08;100.00;90264.97;5031521;28;20454;-68
2021/12/27 10:05:00;;;;;;;61.58;40.00;;;;;;;6.07;100.00;90267.91;5031390;28;20040;-69
2021/12/27 10:07:28;;;;;;;61.95;41.03;;;;;;;6.36;100.00;90268.31;5031507;28;20029;-69
2021/12/27 10:09:59;;;;;;;69.10;45.83;;;;;;;6.46;100.00;90264.66;5031604;28;20029;-69
2021/12/27 10:12:27;;;;;;;62.67;40.28;;;;;;;6.62;100.00;90250.00;5030337;28;20511;-69
2021/12/27 10:15:06;;;;;;;74.78;48.05;;;;;;;6.71;100.00;90266.69;5031141;28;20087;-69
2021/12/27 10:17:34;;;;;;;94.50;56.63;;;;;;;6.83;100.00;90248.44;5031198;28;20044;-69
2021/12/27 10:20:19;;;;;;;76.45;50.80;;;;;;;6.70;100.00;90259.84;5031301;28;20086;-68
2021/12/27 10:22:51;;;;;;;94.97;59.17;;;;;;;6.67;100.00;90257.03;5031326;28;20079;-69
2021/12/27 10:25:26;;;;;;;60.28;37.50;;;;;;;6.62;100.00;90252.63;5031404;28;20064;-69
2021/12/27 10:27:54;;;;;;;44.00;29.73;;;;;;;6.69;100.00;90242.44;5031036;28;20036;-69
2021/12/27 10:30:23;;;;;;;61.65;40.33;;;;;;;6.91;100.00;90245.03;5031302;28;20033;-69
2021/12/27 10:33:10;;;;;;;78.30;49.40;;;;;;;7.04;100.00;90216.19;5031193;28;20064;-69
2021/12/27 10:35:48;;;;;;;83.40;55.25;;;;;;;8.07;100.00;90216.50;5031465;28;20056;-69
2021/12/27 10:38:25;;;;;;;97.07;56.65;;;;;;;11.05;81.35;90204.78;5031219;28;20534;-69
2021/12/27 10:40:54;;;;;;;83.43;50.55;;;;;;;12.78;70.30;90210.53;5031159;28;20036;-69
2021/12/27 10:43:36;;;;;;;65.22;41.40;;;;;;;11.02;71.22;90200.88;5030803;28;20466;-69
2021/12/27 10:46:03;;;;;;;51.75;34.85;;;;;;;10.26;73.56;90209.22;5031130;28;20064;-68
2021/12/27 10:48:34;;;;;;;37.03;25.33;;;;;;;9.06;79.49;90221.91;5031144;28;20029;-69
2021/12/27 10:50:59;;;;;;;34.33;19.67;;;;;;;8.44;84.85;90213.56;5030871;28;20025;-69
2021/12/27 10:53:25;;;;;;;33.72;21.30;;;;;;;8.57;85.84;90213.41;5031084;28;20104;-70
2021/12/27 10:55:50;;;;;;;48.17;31.00;;;;;;;8.31;87.15;90215.25;5031049;28;20025;-70
2021/12/27 10:58:27;;;;;;;52.75;34.55;;;;;;;8.38;88.59;90205.00;5028995;28;20503;-69
2021/12/27 11:01:01;;;;;;;72.30;47.45;;;;;;;8.39;88.43;90196.75;5019499;28;20036;-68
2021/12/27 11:03:37;;;;;;;97.20;66.53;;;;;;;8.47;88.70;90213.72;5030904;28;20033;-69
2021/12/27 11:06:05;;;;;;;93.80;62.22;;;;;;;8.32;89.32;90211.50;5017865;28;20033;-67
2021/12/27 11:08:32;;;;;;;58.13;39.03;;;;;;;8.66;88.21;90205.44;5030828;28;20113;-68
2021/12/27 11:10:58;;;;;;;48.22;34.33;;;;;;;8.91;84.50;90185.28;5030712;28;20404;-68
2021/12/27 11:13:25;;;;;;;35.25;26.17;;;;;;;8.71;84.37;90186.72;5030353;28;20032;-67
2021/12/27 11:15:52;;;;;;;32.45;22.67;;;;;;;7.70;94.20;90186.06;5030877;28;20098;-67